Time;durP1;ratioP1;P1;durP2;ratioP2;P2;SDS_P1;SDS_P2;PMS_P1;PMS_P2;Temp;Humidity;BMP_temperature;BMP_pressure;BME280_temperature;BME280_humidity;BME280_pressure;Samples;Min_cycle;Max_cycle;Signal;HPM_P1;HPM_P2
2022/07/19 00:00:56;;;;;;;8.60;7.50;;;20.20;99.90;;;;;;5052448;28;20442;-75
2022/07/19 00:03:23;;;;;;;8.47;7.00;;;20.10;99.90;;;;;;5052596;28;20536;-75
2022/07/19 00:05:50;;;;;;;7.37;6.40;;;20.10;99.90;;;;;;5052574;28;20450;-75
2022/07/19 00:08:16;;;;;;;14.27;11.53;;;20.10;99.90;;;;;;5052356;28;20453;-77
2022/07/19 00:10:44;;;;;;;13.87;8.00;;;20.10;99.90;;;;;;5052670;28;20446;-76
2022/07/19 00:13:11;;;;;;;7.63;6.83;;;20.10;99.90;;;;;;5052368;28;20535;-75
2022/07/19 00:15:38;;;;;;;7.87;7.03;;;20.10;99.90;;;;;;5052679;28;20913;-76
2022/07/19 00:18:05;;;;;;;8.77;7.80;;;20.10;99.90;;;;;;5052729;28;20477;-77
2022/07/19 00:20:31;;;;;;;11.33;8.10;;;20.00;99.90;;;;;;5052148;28;20445;-76
2022/07/19 00:22:58;;;;;;;11.40;7.90;;;20.00;99.90;;;;;;5052202;28;20472;-76
2022/07/19 00:25:25;;;;;;;8.10;7.23;;;20.00;99.90;;;;;;5052041;28;20982;-76
2022/07/19 00:27:53;;;;;;;9.10;7.10;;;20.00;99.90;;;;;;5052411;28;20515;-76
2022/07/19 00:30:20;;;;;;;8.83;7.97;;;19.90;99.90;;;;;;5053440;28;20452;-76
2022/07/19 00:32:47;;;;;;;22.27;7.53;;;20.00;99.90;;;;;;5052675;28;21138;-76
2022/07/19 00:35:13;;;;;;;8.60;7.00;;;19.90;99.90;;;;;;5052717;28;20450;-76
2022/07/19 00:37:40;;;;;;;8.83;7.33;;;19.90;99.90;;;;;;5052475;28;20441;-77
2022/07/19 00:40:08;;;;;;;11.63;7.30;;;19.90;99.90;;;;;;5052368;28;20449;-76
2022/07/19 00:42:35;;;;;;;8.83;6.57;;;19.90;99.90;;;;;;5055260;28;20481;-76
2022/07/19 00:45:03;;;;;;;8.67;6.10;;;19.80;99.90;;;;;;5056101;28;20448;-76
2022/07/19 00:47:30;;;;;;;9.27;7.17;;;19.80;99.90;;;;;;5055942;28;20445;-76
2022/07/19 00:49:58;;;;;;;9.43;6.10;;;19.80;99.90;;;;;;5055719;28;20449;-75
2022/07/19 00:52:27;;;;;;;7.73;7.00;;;19.80;99.90;;;;;;5055767;28;20441;-76
2022/07/19 00:54:54;;;;;;;8.70;7.20;;;19.80;99.90;;;;;;5055890;28;20816;-76
2022/07/19 00:57:23;;;;;;;9.03;7.60;;;19.70;99.90;;;;;;5056345;28;20450;-76
2022/07/19 00:59:52;;;;;;;10.80;7.07;;;19.70;99.90;;;;;;5055404;28;20449;-76
2022/07/19 01:02:21;;;;;;;11.13;6.57;;;19.60;99.90;;;;;;5055602;28;20886;-76
2022/07/19 01:04:48;;;;;;;8.13;6.90;;;19.50;99.90;;;;;;5055311;28;20465;-77
2022/07/19 01:07:15;;;;;;;7.13;6.47;;;19.50;99.90;;;;;;5056055;28;20552;-76
2022/07/19 01:09:42;;;;;;;8.30;7.10;;;19.50;99.90;;;;;;5056037;28;20449;-76
2022/07/19 01:12:09;;;;;;;8.20;5.90;;;19.40;99.90;;;;;;5055598;28;20456;-76
2022/07/19 01:14:36;;;;;;;6.80;6.07;;;19.40;99.90;;;;;;5055147;28;21007;-76
2022/07/19 01:17:03;;;;;;;8.03;7.23;;;19.40;99.90;;;;;;5055856;28;20535;-76
2022/07/19 01:19:31;;;;;;;11.90;6.10;;;19.30;99.90;;;;;;5055693;28;20442;-76
2022/07/19 01:22:00;;;;;;;8.43;6.90;;;19.30;99.90;;;;;;5055629;28;20465;-76
2022/07/19 01:24:27;;;;;;;7.20;6.07;;;19.40;99.90;;;;;;5055040;28;20462;-76
2022/07/19 01:26:54;;;;;;;8.10;6.47;;;19.40;99.90;;;;;;5055310;28;20453;-76
2022/07/19 01:29:20;;;;;;;7.20;6.40;;;19.30;99.90;;;;;;5055167;28;20448;-76
2022/07/19 01:31:47;;;;;;;9.30;6.37;;;19.30;99.90;;;;;;5054804;28;20499;-76
2022/07/19 01:34:14;;;;;;;8.30;6.60;;;19.20;99.90;;;;;;5055062;28;20894;-76
2022/07/19 01:36:40;;;;;;;6.97;6.37;;;19.20;99.90;;;;;;5054699;28;20568;-76
2022/07/19 01:39:08;;;;;;;7.30;5.93;;;19.10;99.90;;;;;;5055135;28;20460;-76
2022/07/19 01:41:35;;;;;;;8.70;6.57;;;19.10;99.90;;;;;;5055415;28;20442;-76
2022/07/19 01:44:02;;;;;;;9.20;7.47;;;19.10;99.90;;;;;;5054600;28;20897;-76
2022/07/19 01:46:29;;;;;;;6.97;5.63;;;19.20;99.90;;;;;;5055028;28;20472;-76
2022/07/19 01:48:55;;;;;;;6.50;5.90;;;19.10;99.90;;;;;;5054925;28;20960;-76
2022/07/19 01:51:22;;;;;;;7.03;6.33;;;19.10;99.90;;;;;;5055018;28;20457;-76
2022/07/19 01:53:49;;;;;;;9.33;5.90;;;19.20;99.90;;;;;;5053650;28;20478;-76
2022/07/19 01:56:17;;;;;;;7.70;5.50;;;19.20;99.90;;;;;;5054366;28;20970;-75
2022/07/19 01:58:43;;;;;;;6.73;5.80;;;19.10;99.90;;;;;;5054818;28;20450;-76
2022/07/19 02:01:10;;;;;;;13.33;6.40;;;19.20;99.90;;;;;;5054451;28;20445;-75
2022/07/19 02:03:37;;;;;;;9.53;6.90;;;;;;;;;;5054313;28;20516;-75
2022/07/19 02:06:04;;;;;;;5.70;5.20;;;19.10;99.90;;;;;;5054408;28;20452;-76
2022/07/19 02:08:31;;;;;;;9.73;6.27;;;19.10;99.90;;;;;;5055320;28;20457;-76
2022/07/19 02:10:59;;;;;;;9.53;6.70;;;19.00;99.90;;;;;;5054371;28;20453;-75
2022/07/19 02:13:27;;;;;;;6.60;6.00;;;19.00;99.90;;;;;;5054364;28;20988;-75
2022/07/19 02:15:53;;;;;;;7.60;6.10;;;19.00;99.90;;;;;;5054224;28;20449;-76
2022/07/19 02:18:20;;;;;;;5.60;5.10;;;18.90;99.90;;;;;;5054201;28;20464;-76
2022/07/19 02:20:47;;;;;;;6.60;5.87;;;18.90;99.90;;;;;;5054176;28;20824;-75
2022/07/19 02:23:13;;;;;;;8.50;6.80;;;18.80;99.90;;;;;;5053976;28;20462;-75
2022/07/19 02:25:40;;;;;;;6.63;6.10;;;18.80;99.90;;;;;;5054174;28;20876;-75
2022/07/19 02:28:07;;;;;;;8.73;6.10;;;18.70;99.90;;;;;;5054088;28;20469;-75
2022/07/19 02:30:35;;;;;;;8.27;6.37;;;18.70;99.90;;;;;;5054023;28;20495;-76
2022/07/19 02:33:02;;;;;;;7.40;6.60;;;18.70;99.90;;;;;;5053803;28;20474;-75
2022/07/19 02:35:28;;;;;;;7.40;6.70;;;18.70;99.90;;;;;;5053792;28;20948;-75
2022/07/19 02:37:55;;;;;;;6.67;6.00;;;18.70;99.90;;;;;;5053879;28;20445;-76
2022/07/19 02:40:22;;;;;;;7.70;6.03;;;18.70;99.90;;;;;;5054564;28;20433;-75
2022/07/19 02:42:48;;;;;;;13.80;6.77;;;18.70;99.90;;;;;;5053717;28;20867;-75
2022/07/19 02:45:15;;;;;;;10.47;6.50;;;18.70;99.90;;;;;;5054161;28;20418;-75
2022/07/19 02:47:43;;;;;;;8.23;7.30;;;18.70;99.90;;;;;;5054122;28;20469;-76
2022/07/19 02:50:10;;;;;;;7.17;6.33;;;18.60;99.90;;;;;;5054274;28;20469;-75
2022/07/19 02:52:37;;;;;;;7.80;7.07;;;18.70;99.90;;;;;;5053911;28;20447;-75
2022/07/19 02:55:05;;;;;;;9.83;6.87;;;18.60;99.90;;;;;;5053991;28;20484;-75
2022/07/19 02:57:31;;;;;;;9.73;7.43;;;18.60;99.90;;;;;;5053860;28;20442;-75
2022/07/19 02:59:58;;;;;;;8.10;6.10;;;18.50;99.90;;;;;;5053631;28;20473;-75
2022/07/19 03:02:25;;;;;;;6.73;5.73;;;18.50;99.90;;;;;;5053414;28;20824;-75
2022/07/19 03:04:53;;;;;;;9.50;6.83;;;18.50;99.90;;;;;;5052469;28;20446;-75
2022/07/19 03:07:20;;;;;;;8.90;6.60;;;18.50;99.90;;;;;;5054036;28;20516;-75
2022/07/19 03:09:47;;;;;;;8.43;6.93;;;18.50;99.90;;;;;;5053756;28;20441;-75
2022/07/19 03:12:13;;;;;;;11.13;6.63;;;18.50;99.90;;;;;;5053426;28;20492;-74
2022/07/19 03:14:40;;;;;;;7.20;6.10;;;18.50;99.90;;;;;;5053246;28;20486;-75
2022/07/19 03:17:07;;;;;;;9.33;6.33;;;18.40;99.90;;;;;;5053304;28;20472;-75
2022/07/19 03:19:34;;;;;;;8.03;5.87;;;18.40;99.90;;;;;;5053567;28;20449;-75
2022/07/19 03:22:02;;;;;;;8.23;7.43;;;18.40;99.90;;;;;;5053517;28;20503;-75
2022/07/19 03:24:28;;;;;;;9.60;6.70;;;18.40;99.90;;;;;;5053018;28;20546;-75
2022/07/19 03:26:55;;;;;;;10.90;7.20;;;18.30;99.90;;;;;;5053091;28;20449;-75
2022/07/19 03:29:22;;;;;;;7.97;7.17;;;18.30;99.90;;;;;;5052918;28;20445;-75
2022/07/19 03:31:49;;;;;;;10.97;6.50;;;18.40;99.90;;;;;;5053154;28;20481;-75
2022/07/19 03:34:15;;;;;;;7.13;6.37;;;18.40;99.90;;;;;;5052486;28;20490;-75
2022/07/19 03:36:42;;;;;;;9.77;6.57;;;18.30;99.90;;;;;;5053140;28;20441;-75
2022/07/19 03:39:11;;;;;;;9.40;6.23;;;18.30;99.90;;;;;;5053040;28;20452;-75
2022/07/19 03:41:38;;;;;;;9.27;6.80;;;18.20;99.90;;;;;;5053226;28;20504;-76
2022/07/19 03:44:05;;;;;;;8.10;6.57;;;18.30;99.90;;;;;;5052411;28;20465;-75
2022/07/19 03:46:32;;;;;;;10.70;6.13;;;18.30;99.90;;;;;;5052950;28;20446;-75
2022/07/19 03:48:58;;;;;;;13.80;6.40;;;18.30;99.90;;;;;;5052662;28;20457;-75
2022/07/19 03:51:25;;;;;;;10.57;6.80;;;18.30;99.90;;;;;;5052863;28;20458;-75
2022/07/19 03:53:52;;;;;;;9.30;6.87;;;18.30;99.90;;;;;;5052435;28;20486;-76
2022/07/19 03:56:20;;;;;;;8.53;7.63;;;18.30;99.90;;;;;;5053256;28;20446;-75
2022/07/19 03:58:47;;;;;;;7.80;6.80;;;18.30;99.90;;;;;;5053396;28;20501;-75
2022/07/19 04:01:14;;;;;;;12.50;7.60;;;18.30;99.90;;;;;;5052853;28;20442;-75
2022/07/19 04:03:41;;;;;;;7.60;6.40;;;18.30;99.90;;;;;;5053059;28;20474;-76
2022/07/19 04:06:10;;;;;;;7.97;6.53;;;18.30;99.90;;;;;;5053670;28;20445;-75
2022/07/19 04:08:37;;;;;;;12.40;6.83;;;18.40;99.90;;;;;;5052991;28;20448;-75
2022/07/19 04:11:04;;;;;;;8.77;7.87;;;18.40;99.90;;;;;;5053073;28;20450;-75
2022/07/19 04:13:35;;;;;;;12.90;7.63;;;18.40;99.90;;;;;;5052851;28;20820;-75
2022/07/19 04:16:02;;;;;;;8.30;6.73;;;18.50;99.90;;;;;;5053175;28;20812;-75
2022/07/19 04:18:29;;;;;;;12.33;7.53;;;18.50;99.90;;;;;;5056630;28;20446;-75
2022/07/19 04:20:55;;;;;;;8.50;6.97;;;18.60;99.90;;;;;;5056743;28;20454;-75
2022/07/19 04:23:22;;;;;;;9.80;7.17;;;18.60;99.90;;;;;;5056448;28;20461;-75
2022/07/19 04:25:49;;;;;;;14.97;6.63;;;18.70;99.90;;;;;;5056728;28;20462;-76
2022/07/19 04:28:15;;;;;;;10.53;8.03;;;18.80;99.90;;;;;;5056697;28;20446;-75
2022/07/19 04:30:43;;;;;;;9.67;7.03;;;18.90;99.90;;;;;;5056212;28;20901;-75
2022/07/19 04:33:13;;;;;;;8.33;7.00;;;18.90;99.90;;;;;;5056514;28;20534;-75
2022/07/19 04:35:40;;;;;;;7.83;7.03;;;18.80;99.90;;;;;;5056578;28;20461;-75
2022/07/19 04:38:06;;;;;;;12.17;7.30;;;18.90;99.90;;;;;;5056176;28;20446;-76
2022/07/19 04:40:33;;;;;;;8.80;6.70;;;18.90;99.90;;;;;;5056390;28;20860;-75
2022/07/19 04:43:00;;;;;;;8.50;6.97;;;;;;;;;;5080344;22;20492;-76
2022/07/19 04:45:27;;;;;;;7.10;6.40;;;19.00;99.90;;;;;;5054500;28;20445;-77
2022/07/19 04:47:55;;;;;;;9.50;6.53;;;19.00;99.90;;;;;;5057499;28;20803;-76
2022/07/19 04:50:22;;;;;;;9.40;6.63;;;19.00;99.90;;;;;;5057070;28;20932;-76
2022/07/19 04:52:49;;;;;;;7.00;6.37;;;19.10;99.90;;;;;;5056474;28;20445;-76
2022/07/19 04:55:16;;;;;;;6.73;6.13;;;19.20;99.90;;;;;;5056703;28;20488;-77
2022/07/19 04:57:42;;;;;;;11.70;7.33;;;19.30;99.90;;;;;;5056921;28;20976;-77
2022/07/19 05:00:11;;;;;;;8.20;6.77;;;19.40;99.90;;;;;;5057218;28;20817;-77
2022/07/19 05:02:38;;;;;;;7.70;6.97;;;19.40;99.90;;;;;;5057065;28;20453;-76
2022/07/19 05:05:07;;;;;;;7.83;6.80;;;19.50;99.90;;;;;;5057006;28;20472;-76
2022/07/19 05:07:33;;;;;;;9.03;7.17;;;19.50;99.90;;;;;;5056869;28;20453;-77
2022/07/19 05:10:00;;;;;;;14.87;7.97;;;19.60;99.90;;;;;;5056997;28;20916;-77
2022/07/19 05:12:27;;;;;;;12.57;6.33;;;19.70;99.90;;;;;;5056428;28;20445;-76
2022/07/19 05:14:54;;;;;;;11.90;6.77;;;19.80;99.90;;;;;;5056749;28;20596;-77
2022/07/19 05:17:21;;;;;;;8.77;7.20;;;19.80;99.90;;;;;;5056456;28;20451;-77
2022/07/19 05:19:47;;;;;;;7.13;6.40;;;19.90;99.90;;;;;;5056505;28;20451;-77
2022/07/19 05:22:15;;;;;;;7.80;7.00;;;20.00;99.90;;;;;;5056651;28;20445;-77
2022/07/19 05:24:42;;;;;;;7.03;5.57;;;20.10;99.90;;;;;;5055929;28;20828;-76
2022/07/19 05:27:09;;;;;;;8.43;7.37;;;20.20;99.90;;;;;;5056007;28;20520;-77
2022/07/19 05:29:35;;;;;;;10.30;6.40;;;20.30;99.90;;;;;;5055117;28;20441;-77
2022/07/19 05:32:02;;;;;;;9.23;5.70;;;20.30;99.90;;;;;;5055950;28;20453;-77
2022/07/19 05:34:29;;;;;;;9.67;6.57;;;20.40;99.90;;;;;;5056039;28;20484;-76
2022/07/19 05:36:55;;;;;;;9.10;7.07;;;20.50;99.90;;;;;;5055737;28;20450;-77
2022/07/19 05:39:23;;;;;;;7.93;7.17;;;20.60;99.90;;;;;;5055735;28;20448;-77
2022/07/19 05:41:50;;;;;;;8.10;6.93;;;20.70;99.90;;;;;;5055651;28;20801;-78
2022/07/19 05:44:17;;;;;;;8.50;7.10;;;20.80;99.90;;;;;;5055287;28;20619;-77
2022/07/19 05:46:44;;;;;;;7.23;5.60;;;20.90;99.90;;;;;;5055604;28;20427;-76
2022/07/19 05:49:11;;;;;;;6.33;5.00;;;21.00;99.90;;;;;;5055447;28;20862;-76
2022/07/19 05:51:38;;;;;;;7.13;5.50;;;21.10;99.90;;;;;;5056140;28;20801;-76
2022/07/19 05:54:05;;;;;;;13.80;6.03;;;21.10;99.90;;;;;;5055426;28;20470;-76
2022/07/19 05:56:33;;;;;;;10.53;4.73;;;21.30;99.90;;;;;;5055521;28;20453;-76
2022/07/19 05:59:01;;;;;;;9.90;4.83;;;21.40;99.90;;;;;;5057035;28;20446;-77
2022/07/19 06:01:28;;;;;;;6.73;5.23;;;21.40;99.90;;;;;;5056359;28;20453;-77
2022/07/19 06:03:56;;;;;;;8.43;4.70;;;21.50;99.90;;;;;;5056063;28;20470;-76
2022/07/19 06:06:25;;;;;;;9.47;6.00;;;21.50;99.90;;;;;;5055559;28;20441;-76
2022/07/19 06:08:52;;;;;;;6.17;5.20;;;21.60;99.90;;;;;;5055324;28;20449;-77
2022/07/19 06:11:19;;;;;;;5.63;5.00;;;21.70;99.90;;;;;;5055169;28;20450;-77
2022/07/19 06:13:48;;;;;;;9.83;5.03;;;21.80;99.90;;;;;;5055254;28;20845;-77
2022/07/19 06:16:15;;;;;;;13.87;5.60;;;21.80;99.90;;;;;;5055133;28;20468;-77
2022/07/19 06:18:42;;;;;;;6.43;5.50;;;21.90;99.90;;;;;;5055049;28;20488;-77
2022/07/19 06:21:10;;;;;;;6.47;5.83;;;22.00;99.90;;;;;;5054628;28;20920;-77
2022/07/19 06:23:38;;;;;;;7.43;4.80;;;22.00;99.90;;;;;;5054839;28;20470;-77
2022/07/19 06:26:17;;;;;;;8.30;5.70;;;22.10;99.90;;;;;;5054499;28;20442;-77
2022/07/19 06:28:48;;;;;;;6.43;5.53;;;22.20;99.90;;;;;;5054246;28;20430;-77
2022/07/19 06:31:17;;;;;;;11.30;5.20;;;22.30;99.90;;;;;;5054668;28;20864;-77
2022/07/19 06:33:52;;;;;;;8.73;4.90;;;22.40;99.90;;;;;;5055209;28;20466;-77
2022/07/19 06:36:29;;;;;;;5.40;4.03;;;22.50;99.90;;;;;;5054417;28;20603;-76
2022/07/19 06:38:58;;;;;;;7.63;4.43;;;22.70;99.90;;;;;;5054401;28;20429;-77
2022/07/19 06:41:26;;;;;;;6.03;5.30;;;22.80;99.90;;;;;;5058323;28;20457;-76
2022/07/19 06:43:59;;;;;;;6.17;4.83;;;22.90;99.90;;;;;;5054631;28;20477;-77
2022/07/19 06:46:27;;;;;;;12.83;4.00;;;22.90;99.90;;;;;;5054089;28;20479;-77
2022/07/19 06:48:54;;;;;;;5.87;3.80;;;23.00;99.90;;;;;;5054156;28;20508;-76
2022/07/19 06:51:21;;;;;;;25.50;6.50;;;23.10;99.90;;;;;;5054135;28;20480;-76
2022/07/19 06:53:56;;;;;;;9.57;4.40;;;23.10;99.90;;;;;;5053983;28;20523;-77
2022/07/19 06:56:24;;;;;;;12.63;3.80;;;23.20;99.90;;;;;;5054205;28;20561;-76
2022/07/19 06:58:51;;;;;;;4.23;3.40;;;23.40;99.90;;;;;;5054143;28;20501;-77
2022/07/19 07:01:21;;;;;;;4.00;3.53;;;23.50;99.90;;;;;;5054249;28;20966;-77
2022/07/19 07:03:48;;;;;;;20.67;6.67;;;23.60;99.90;;;;;;5054044;28;20470;-77
2022/07/19 07:06:15;;;;;;;4.03;3.17;;;23.60;99.90;;;;;;5054115;28;20487;-77
2022/07/19 07:08:50;;;;;;;16.67;4.20;;;23.70;99.90;;;;;;5053845;28;20449;-77
2022/07/19 07:11:22;;;;;;;17.80;4.90;;;23.80;99.90;;;;;;5054481;28;20429;-77
2022/07/19 07:13:50;;;;;;;13.67;4.40;;;23.80;99.90;;;;;;5053511;28;20480;-77
2022/07/19 07:16:17;;;;;;;4.00;3.40;;;23.90;99.90;;;;;;5053951;28;20488;-77
2022/07/19 07:18:46;;;;;;;4.70;3.93;;;24.10;99.90;;;;;;5054097;28;20941;-78
2022/07/19 07:21:12;;;;;;;4.83;3.60;;;24.20;99.90;;;;;;5053534;28;20441;-77
2022/07/19 07:23:39;;;;;;;3.77;3.40;;;24.30;99.90;;;;;;5053656;28;20470;-78
2022/07/19 07:26:06;;;;;;;4.07;3.67;;;24.20;99.90;;;;;;5054202;28;20448;-77
2022/07/19 07:28:33;;;;;;;7.43;3.50;;;24.30;99.90;;;;;;5054757;28;20808;-77
2022/07/19 07:31:00;;;;;;;5.87;4.70;;;24.30;99.90;;;;;;5054084;28;20445;-76
2022/07/19 07:33:27;;;;;;;4.10;3.27;;;24.40;99.90;;;;;;5054737;28;20846;-78
2022/07/19 07:35:55;;;;;;;5.93;3.17;;;24.50;99.90;;;;;;5056213;28;20805;-78
2022/07/19 07:38:22;;;;;;;8.37;3.77;;;24.50;99.90;;;;;;5055873;28;20795;-77
2022/07/19 07:40:49;;;;;;;12.50;9.00;;;24.60;99.90;;;;;;5055801;28;20449;-78
2022/07/19 07:43:15;;;;;;;18.07;12.57;;;25.00;99.90;;;;;;5057760;28;20468;-77
2022/07/19 07:45:42;;;;;;;17.50;13.00;;;24.80;99.90;;;;;;5058906;28;20893;-78
2022/07/19 07:48:09;;;;;;;16.60;11.10;;;24.80;99.90;;;;;;5056482;28;20475;-80
2022/07/19 07:50:36;;;;;;;13.83;10.53;;;24.90;99.90;;;;;;5052873;28;20792;-75
2022/07/19 07:53:11;;;;;;;10.73;8.00;;;25.00;99.90;;;;;;5054117;28;20951;-74
2022/07/19 07:55:49;;;;;;;10.63;9.50;;;25.00;99.90;;;;;;5053205;28;20477;-74
2022/07/19 07:58:17;;;;;;;12.23;9.20;;;25.10;99.90;;;;;;5053456;28;20797;-74
2022/07/19 08:00:45;;;;;;;6.93;3.43;;;25.10;99.90;;;;;;5053731;28;20869;-75
2022/07/19 08:03:13;;;;;;;6.43;4.60;;;25.70;99.90;;;;;;5053571;28;20865;-75
2022/07/19 08:05:41;;;;;;;11.80;7.17;;;25.30;99.90;;;;;;5053719;28;20450;-75
2022/07/19 08:08:12;;;;;;;12.10;9.77;;;25.40;99.90;;;;;;5053649;28;20481;-75
2022/07/19 08:10:40;;;;;;;10.10;7.10;;;25.40;99.90;;;;;;5053600;28;20441;-75
2022/07/19 08:13:11;;;;;;;7.33;6.57;;;25.50;99.90;;;;;;5053150;28;20451;-75
2022/07/19 08:15:40;;;;;;;9.47;5.93;;;25.50;99.90;;;;;;5053265;28;20527;-73
2022/07/19 08:18:07;;;;;;;4.57;3.80;;;25.50;99.90;;;;;;5053071;28;20449;-74
2022/07/19 08:20:35;;;;;;;6.77;5.07;;;25.70;99.90;;;;;;5053288;28;20445;-74
2022/07/19 08:23:03;;;;;;;7.27;4.97;;;25.70;99.90;;;;;;5052895;28;20454;-74
2022/07/19 08:25:38;;;;;;;9.80;6.20;;;25.80;99.90;;;;;;5053432;28;20477;-75
2022/07/19 08:28:06;;;;;;;7.03;4.10;;;25.80;99.90;;;;;;5054129;28;20418;-74
2022/07/19 08:30:34;;;;;;;5.97;5.10;;;25.90;99.90;;;;;;5053978;28;20460;-76
2022/07/19 08:33:02;;;;;;;23.10;19.63;;;25.90;99.90;;;;;;5052435;28;20507;-76
2022/07/19 08:35:29;;;;;;;24.90;15.40;;;26.00;99.90;;;;;;5052642;28;20563;-76
2022/07/19 08:37:55;;;;;;;12.27;7.27;;;26.10;99.90;;;;;;5052483;28;20446;-76
2022/07/19 08:40:22;;;;;;;24.10;15.80;;;26.10;99.90;;;;;;5052681;28;20445;-77
2022/07/19 08:42:52;;;;;;;21.93;16.40;;;26.30;99.90;;;;;;5052684;28;20445;-76
2022/07/19 08:45:18;;;;;;;7.67;4.70;;;26.30;99.90;;;;;;5052318;28;21016;-76
2022/07/19 08:47:46;;;;;;;10.20;7.43;;;26.30;99.90;;;;;;5052593;28;20453;-76
2022/07/19 08:50:13;;;;;;;10.47;8.30;;;26.30;99.90;;;;;;5052218;28;20445;-76
2022/07/19 08:52:40;;;;;;;9.37;4.83;;;26.30;99.90;;;;;;5052904;28;20454;-76
2022/07/19 08:55:07;;;;;;;12.10;8.83;;;26.30;99.90;;;;;;5052298;28;20543;-77
2022/07/19 09:00:20;;;;;;;6.83;5.50;;;26.50;99.90;;;;;;5052744;28;20891;-76
2022/07/19 09:02:54;;;;;;;13.87;5.30;;;26.50;99.90;;;;;;5054189;28;20820;-76
2022/07/19 09:05:22;;;;;;;11.00;5.00;;;26.50;99.90;;;;;;5056168;28;20472;-76
2022/07/19 09:08:03;;;;;;;4.87;3.60;;;26.60;99.90;;;;;;5056891;28;20468;-76
2022/07/19 09:10:31;;;;;;;7.87;4.40;;;26.70;99.90;;;;;;5056189;28;20437;-76
2022/07/19 09:13:03;;;;;;;7.00;4.93;;;27.00;99.90;;;;;;5056642;28;20503;-76
2022/07/19 09:15:46;;;;;;;9.27;4.57;;;27.00;99.90;;;;;;5056034;28;20477;-78
2022/07/19 09:18:15;;;;;;;8.97;4.70;;;27.00;99.90;;;;;;5056255;28;20445;-76
2022/07/19 09:20:42;;;;;;;10.07;3.83;;;27.10;99.90;;;;;;5055741;28;20825;-76
2022/07/19 09:23:09;;;;;;;6.20;4.07;;;27.20;99.90;;;;;;5055939;28;20789;-76
2022/07/19 09:25:38;;;;;;;5.23;3.50;;;27.30;99.90;;;;;;5056104;28;20445;-76
2022/07/19 09:28:05;;;;;;;5.50;4.00;;;27.30;99.90;;;;;;5055941;28;20442;-76
2022/07/19 09:30:40;;;;;;;4.93;3.80;;;27.30;99.90;;;;;;5055945;28;20449;-76
2022/07/19 09:33:11;;;;;;;6.13;4.17;;;28.10;99.90;;;;;;5055943;28;20444;-76
2022/07/19 09:35:40;;;;;;;11.50;7.00;;;27.50;99.90;;;;;;5056248;28;20473;-76
2022/07/19 09:38:19;;;;;;;5.33;4.03;;;27.70;99.90;;;;;;5055879;28;20519;-76
2022/07/19 09:40:46;;;;;;;11.80;7.70;;;27.80;99.90;;;;;;5055600;28;20923;-76
2022/07/19 09:43:13;;;;;;;11.97;9.60;;;28.20;99.90;;;;;;5055290;28;20485;-76
2022/07/19 09:45:39;;;;;;;10.07;5.00;;;27.90;99.90;;;;;;5055931;28;20792;-76
2022/07/19 09:48:06;;;;;;;16.87;15.07;;;28.00;97.10;;;;;;5055820;28;20445;-76
2022/07/19 09:50:34;;;;;;;34.43;30.73;;;28.10;97.60;;;;;;5055470;28;20454;-76
2022/07/19 09:53:04;;;;;;;23.00;18.63;;;28.10;97.90;;;;;;5055570;28;20449;-76
2022/07/19 09:55:31;;;;;;;26.03;23.50;;;28.10;98.20;;;;;;5055712;28;20442;-76
2022/07/19 09:58:01;;;;;;;11.30;9.97;;;28.10;96.70;;;;;;5056271;28;20454;-76
2022/07/19 10:00:28;;;;;;;8.03;6.80;;;28.20;95.50;;;;;;5055241;28;20450;-76
2022/07/19 10:02:56;;;;;;;4.17;3.87;;;28.30;95.30;;;;;;5054902;28;20940;-76
2022/07/19 10:05:24;;;;;;;6.50;3.57;;;28.40;94.00;;;;;;5055331;28;20449;-76
2022/07/19 10:07:52;;;;;;;4.93;3.60;;;28.50;92.50;;;;;;5055249;28;20457;-76
2022/07/19 10:10:21;;;;;;;5.87;3.60;;;28.60;89.20;;;;;;5055205;28;20519;-75
2022/07/19 10:12:50;;;;;;;6.70;5.37;;;28.60;89.30;;;;;;5054983;28;20446;-76
2022/07/19 10:15:18;;;;;;;6.93;4.53;;;28.70;92.30;;;;;;5054373;28;20879;-76
2022/07/19 10:18:01;;;;;;;6.50;4.37;;;28.70;91.80;;;;;;5055169;28;20929;-75
2022/07/19 10:20:30;;;;;;;4.00;3.70;;;28.70;90.20;;;;;;5055186;28;20428;-76
2022/07/19 10:23:00;;;;;;;6.87;6.17;;;28.70;88.60;;;;;;5054873;28;20442;-75
2022/07/19 10:25:38;;;;;;;6.20;5.47;;;28.70;90.40;;;;;;5056019;28;20437;-76
2022/07/19 10:28:05;;;;;;;5.93;5.43;;;28.80;91.50;;;;;;5054670;28;20933;-76
2022/07/19 10:30:41;;;;;;;5.17;4.50;;;28.70;90.40;;;;;;5054665;28;20604;-76
2022/07/19 10:33:33;;;;;;;5.13;4.23;;;28.50;89.40;;;;;;5054092;28;20437;-76
2022/07/19 10:36:32;;;;;;;3.53;3.13;;;28.80;90.30;;;;;;5054633;28;20461;-75
2022/07/19 10:39:24;;;;;;;3.40;3.10;;;28.90;87.00;;;;;;5054917;28;20453;-77
2022/07/19 10:42:08;;;;;;;9.23;3.60;;;29.00;81.70;;;;;;5054502;28;20859;-76
2022/07/19 10:44:36;;;;;;;4.27;2.93;;;29.10;77.30;;;;;;5077235;22;20488;-75
2022/07/19 10:47:03;;;;;;;3.27;2.97;;;29.20;78.00;;;;;;5053911;28;20473;-75
2022/07/19 10:49:43;;;;;;;3.83;3.30;;;29.20;82.80;;;;;;5054393;28;20448;-74
2022/07/19 10:52:32;;;;;;;4.50;3.63;;;29.30;84.20;;;;;;5053885;28;20507;-75
2022/07/19 10:55:28;;;;;;;3.57;3.27;;;29.30;82.10;;;;;;5054181;28;20466;-74
2022/07/19 10:58:09;;;;;;;5.50;3.10;;;29.30;81.60;;;;;;5053646;28;20504;-74
2022/07/19 11:00:43;;;;;;;2.80;2.60;;;29.30;84.80;;;;;;5053852;28;20429;-75
2022/07/19 11:03:30;;;;;;;3.47;3.17;;;29.40;76.70;;;;;;5054633;28;20799;-74
2022/07/19 11:05:59;;;;;;;5.20;4.40;;;29.40;79.20;;;;;;5054076;28;20445;-75
2022/07/19 11:08:34;;;;;;;3.50;3.20;;;29.50;78.10;;;;;;5053697;28;20446;-74
2022/07/19 11:11:06;;;;;;;3.40;2.70;;;29.50;70.20;;;;;;5053981;28;20795;-74
2022/07/19 11:13:33;;;;;;;6.03;5.30;;;29.40;69.10;;;;;;5053077;28;20446;-74
2022/07/19 11:16:02;;;;;;;7.53;6.80;;;29.70;66.40;;;;;;5053515;28;20478;-74
2022/07/19 11:18:29;;;;;;;3.67;3.20;;;29.80;73.10;;;;;;5053481;28;20455;-74
2022/07/19 11:20:58;;;;;;;8.57;5.60;;;30.00;70.00;;;;;;5053202;28;20816;-74
2022/07/19 11:23:28;;;;;;;5.80;3.50;;;30.00;68.90;;;;;;5053259;28;20451;-74
2022/07/19 11:26:07;;;;;;;9.00;7.17;;;30.00;68.00;;;;;;5052513;28;20433;-74
2022/07/19 11:28:34;;;;;;;5.00;4.50;;;30.00;67.60;;;;;;5053112;28;20448;-74
2022/07/19 11:31:01;;;;;;;7.40;6.70;;;30.10;65.10;;;;;;5052717;28;20509;-74
2022/07/19 11:33:28;;;;;;;8.53;7.73;;;29.90;73.00;;;;;;5053026;28;20442;-74
2022/07/19 11:35:57;;;;;;;8.20;7.40;;;30.00;74.30;;;;;;5052905;28;20452;-74
2022/07/19 11:38:24;;;;;;;6.53;5.93;;;29.80;69.00;;;;;;5052786;28;20450;-74
2022/07/19 11:40:50;;;;;;;5.33;4.80;;;29.80;69.40;;;;;;5052920;28;20450;-74
2022/07/19 11:43:19;;;;;;;4.97;4.23;;;29.80;70.70;;;;;;5052878;28;20446;-74
2022/07/19 11:45:49;;;;;;;5.87;5.23;;;29.80;71.60;;;;;;5052451;28;20836;-75
2022/07/19 11:48:26;;;;;;;5.10;3.30;;;29.80;70.00;;;;;;5053185;28;20430;-75
2022/07/19 11:51:06;;;;;;;13.40;12.17;;;29.90;67.10;;;;;;5052827;28;20440;-75
2022/07/19 11:53:35;;;;;;;24.93;22.53;;;30.00;66.00;;;;;;5052600;28;20430;-74
2022/07/19 11:56:02;;;;;;;7.10;5.87;;;30.00;68.00;;;;;;5052735;28;20461;-75
2022/07/19 11:58:30;;;;;;;6.97;6.37;;;30.00;62.70;;;;;;5052831;28;20442;-75
2022/07/19 12:01:05;;;;;;;11.30;10.20;;;30.20;73.60;;;;;;5052575;28;20446;-74
2022/07/19 12:03:32;;;;;;;24.60;22.23;;;30.50;67.50;;;;;;5052940;28;20460;-74
2022/07/19 12:06:01;;;;;;;12.10;10.20;;;30.30;67.00;;;;;;5052195;28;20445;-75
2022/07/19 12:08:37;;;;;;;8.87;7.50;;;30.20;70.10;;;;;;5052272;28;20959;-74
2022/07/19 12:11:20;;;;;;;8.93;8.03;;;30.20;70.30;;;;;;5052583;28;20445;-74
2022/07/19 12:13:49;;;;;;;6.80;3.73;;;30.20;71.40;;;;;;5053028;28;20980;-75
2022/07/19 12:16:16;;;;;;;5.73;3.13;;;30.20;58.80;;;;;;5052649;28;20449;-74
2022/07/19 12:18:45;;;;;;;7.00;3.93;;;30.50;60.20;;;;;;5053520;28;20450;-75
2022/07/19 12:21:20;;;;;;;5.73;3.97;;;30.60;65.50;;;;;;5052606;28;20540;-74
2022/07/19 12:24:17;;;;;;;7.10;4.20;;;30.60;59.80;;;;;;5052457;28;20465;-74
2022/07/19 12:26:54;;;;;;;4.83;4.23;;;30.80;59.20;;;;;;5052966;28;20437;-74
2022/07/19 12:29:24;;;;;;;6.00;4.20;;;31.00;61.50;;;;;;5052648;28;20429;-74
2022/07/19 12:31:58;;;;;;;4.90;3.80;;;31.10;64.60;;;;;;5052436;28;20556;-74
2022/07/19 12:34:26;;;;;;;4.87;4.30;;;31.00;63.90;;;;;;5052301;28;20465;-74
2022/07/19 12:36:53;;;;;;;5.17;3.33;;;30.90;68.00;;;;;;5052557;28;20927;-74
2022/07/19 12:39:25;;;;;;;6.30;3.27;;;30.90;58.10;;;;;;5056794;28;20801;-74
2022/07/19 12:42:02;;;;;;;3.90;3.60;;;31.00;61.50;;;;;;5057158;28;20433;-75
2022/07/19 12:44:31;;;;;;;3.80;3.50;;;31.00;62.00;;;;;;5056240;28;20477;-75
2022/07/19 12:46:58;;;;;;;7.27;4.33;;;31.00;61.60;;;;;;5056603;28;20445;-74
2022/07/19 12:49:25;;;;;;;3.80;3.50;;;31.00;56.90;;;;;;5056398;28;20445;-75
2022/07/19 12:51:52;;;;;;;3.50;3.20;;;31.10;58.50;;;;;;5056591;28;20449;-74
2022/07/19 12:54:19;;;;;;;11.00;9.87;;;31.10;56.70;;;;;;5056575;28;20477;-74
2022/07/19 12:56:45;;;;;;;8.13;6.07;;;31.20;58.50;;;;;;5055967;28;20487;-74